sensor_id;sensor_type;location;lat;lon;timestamp;temperature;humidity
52285;DHT22;38238;53.304;6.606;2022-12-18T00:01:39;-3.70;99.90
52285;DHT22;38238;53.304;6.606;2022-12-18T00:04:06;-3.70;99.90
52285;DHT22;38238;53.304;6.606;2022-12-18T00:06:34;-1.10;99.90
52285;DHT22;38238;53.304;6.606;2022-12-18T00:09:00;-3.70;99.90
52285;DHT22;38238;53.304;6.606;2022-12-18T00:11:28;-3.70;99.90
52285;DHT22;38238;53.304;6.606;2022-12-18T00:13:57;-3.70;99.90
52285;DHT22;38238;53.304;6.606;2022-12-18T00:16:24;-3.60;99.90
52285;DHT22;38238;53.304;6.606;2022-12-18T00:18:53;-3.70;99.90
52285;DHT22;38238;53.304;6.606;2022-12-18T00:21:19;-3.70;99.90
52285;DHT22;38238;53.304;6.606;2022-12-18T00:23:46;-3.70;99.90
52285;DHT22;38238;53.304;6.606;2022-12-18T00:26:33;-3.70;99.90
52285;DHT22;38238;53.304;6.606;2022-12-18T00:29:01;-3.80;99.90
52285;DHT22;38238;53.304;6.606;2022-12-18T00:31:27;-3.90;99.90
52285;DHT22;38238;53.304;6.606;2022-12-18T00:33:54;-3.80;99.90
52285;DHT22;38238;53.304;6.606;2022-12-18T00:36:30;-3.80;99.90
52285;DHT22;38238;53.304;6.606;2022-12-18T00:38:57;-3.80;99.90
52285;DHT22;38238;53.304;6.606;2022-12-18T00:41:24;-3.80;99.90
52285;DHT22;38238;53.304;6.606;2022-12-18T00:44:11;-3.90;99.90
52285;DHT22;38238;53.304;6.606;2022-12-18T00:46:37;-3.80;99.90
52285;DHT22;38238;53.304;6.606;2022-12-18T00:49:03;-3.90;99.90
52285;DHT22;38238;53.304;6.606;2022-12-18T00:51:29;-3.80;99.90
52285;DHT22;38238;53.304;6.606;2022-12-18T00:53:55;-3.80;99.90
52285;DHT22;38238;53.304;6.606;2022-12-18T00:56:21;-3.90;99.90
52285;DHT22;38238;53.304;6.606;2022-12-18T00:58:47;-4.00;99.90
52285;DHT22;38238;53.304;6.606;2022-12-18T01:01:12;-3.90;99.90
52285;DHT22;38238;53.304;6.606;2022-12-18T01:03:38;-4.00;99.90
52285;DHT22;38238;53.304;6.606;2022-12-18T01:06:09;-4.00;99.90
52285;DHT22;38238;53.304;6.606;2022-12-18T01:08:36;-4.00;99.90
52285;DHT22;38238;53.304;6.606;2022-12-18T01:11:11;-4.00;99.90
52285;DHT22;38238;53.304;6.606;2022-12-18T01:13:38;-4.10;99.90
52285;DHT22;38238;53.304;6.606;2022-12-18T01:16:04;-2.70;99.90
52285;DHT22;38238;53.304;6.606;2022-12-18T01:18:29;-4.10;99.90
52285;DHT22;38238;53.304;6.606;2022-12-18T01:20:55;-4.00;99.90
52285;DHT22;38238;53.304;6.606;2022-12-18T01:23:21;-4.10;99.90
52285;DHT22;38238;53.304;6.606;2022-12-18T01:25:46;-4.20;99.90
52285;DHT22;38238;53.304;6.606;2022-12-18T01:28:12;-4.10;99.90
52285;DHT22;38238;53.304;6.606;2022-12-18T01:30:38;-2.20;99.90
52285;DHT22;38238;53.304;6.606;2022-12-18T01:33:06;-4.20;99.90
52285;DHT22;38238;53.304;6.606;2022-12-18T01:35:32;-4.10;99.90
52285;DHT22;38238;53.304;6.606;2022-12-18T01:37:58;-4.10;99.90
52285;DHT22;38238;53.304;6.606;2022-12-18T01:40:24;-4.10;99.90
52285;DHT22;38238;53.304;6.606;2022-12-18T01:42:53;-4.20;99.90
52285;DHT22;38238;53.304;6.606;2022-12-18T01:45:23;-4.10;99.90
52285;DHT22;38238;53.304;6.606;2022-12-18T01:47:52;-4.20;99.90
52285;DHT22;38238;53.304;6.606;2022-12-18T01:50:25;-4.10;99.90
52285;DHT22;38238;53.304;6.606;2022-12-18T01:52:55;-4.20;99.90
52285;DHT22;38238;53.304;6.606;2022-12-18T01:55:24;-4.30;99.90
52285;DHT22;38238;53.304;6.606;2022-12-18T01:57:57;-4.20;99.90
52285;DHT22;38238;53.304;6.606;2022-12-18T02:00:25;-4.20;99.90
52285;DHT22;38238;53.304;6.606;2022-12-18T02:02:52;-4.20;99.90
52285;DHT22;38238;53.304;6.606;2022-12-18T02:05:33;-4.20;99.90
52285;DHT22;38238;53.304;6.606;2022-12-18T02:10:41;-4.30;99.90
52285;DHT22;38238;53.304;6.606;2022-12-18T02:13:25;-4.30;99.90
52285;DHT22;38238;53.304;6.606;2022-12-18T02:16:26;-4.30;99.90
52285;DHT22;38238;53.304;6.606;2022-12-18T02:19:00;-4.40;99.90
52285;DHT22;38238;53.304;6.606;2022-12-18T02:21:35;-4.40;99.90
52285;DHT22;38238;53.304;6.606;2022-12-18T02:24:15;-4.40;99.90
52285;DHT22;38238;53.304;6.606;2022-12-18T02:26:51;-4.50;99.90
52285;DHT22;38238;53.304;6.606;2022-12-18T02:29:26;-4.50;99.90
52285;DHT22;38238;53.304;6.606;2022-12-18T02:31:59;-4.50;99.90
52285;DHT22;38238;53.304;6.606;2022-12-18T02:34:29;-4.60;99.90
52285;DHT22;38238;53.304;6.606;2022-12-18T02:36:56;-4.70;99.90
52285;DHT22;38238;53.304;6.606;2022-12-18T02:39:23;-4.70;99.90
52285;DHT22;38238;53.304;6.606;2022-12-18T02:41:50;-4.80;99.90
52285;DHT22;38238;53.304;6.606;2022-12-18T02:44:16;-4.80;99.90
52285;DHT22;38238;53.304;6.606;2022-12-18T02:46:45;-4.80;99.90
52285;DHT22;38238;53.304;6.606;2022-12-18T02:49:51;-4.80;99.90
52285;DHT22;38238;53.304;6.606;2022-12-18T03:00:14;-4.90;99.90
52285;DHT22;38238;53.304;6.606;2022-12-18T03:02:46;-4.90;99.90
52285;DHT22;38238;53.304;6.606;2022-12-18T03:05:14;-4.90;99.90
52285;DHT22;38238;53.304;6.606;2022-12-18T03:07:49;-5.00;99.90
52285;DHT22;38238;53.304;6.606;2022-12-18T03:10:21;-5.00;99.90
52285;DHT22;38238;53.304;6.606;2022-12-18T03:12:58;-5.00;99.90
52285;DHT22;38238;53.304;6.606;2022-12-18T03:15:31;-5.10;99.90
52285;DHT22;38238;53.304;6.606;2022-12-18T03:18:02;-5.10;99.90
52285;DHT22;38238;53.304;6.606;2022-12-18T03:20:31;-4.50;99.90
52285;DHT22;38238;53.304;6.606;2022-12-18T03:23:04;-5.10;99.90
52285;DHT22;38238;53.304;6.606;2022-12-18T03:25:33;-3.10;99.90
52285;DHT22;38238;53.304;6.606;2022-12-18T03:28:01;-5.10;99.90
52285;DHT22;38238;53.304;6.606;2022-12-18T03:30:29;-5.10;99.90
52285;DHT22;38238;53.304;6.606;2022-12-18T03:33:07;-5.10;99.90
52285;DHT22;38238;53.304;6.606;2022-12-18T03:35:37;-5.10;99.90
52285;DHT22;38238;53.304;6.606;2022-12-18T03:38:03;-5.10;99.90
52285;DHT22;38238;53.304;6.606;2022-12-18T03:46:22;-3.10;99.90
52285;DHT22;38238;53.304;6.606;2022-12-18T03:48:52;-5.10;99.90
52285;DHT22;38238;53.304;6.606;2022-12-18T03:51:49;-5.00;99.90
52285;DHT22;38238;53.304;6.606;2022-12-18T03:54:18;-5.10;99.90
52285;DHT22;38238;53.304;6.606;2022-12-18T03:56:50;-5.10;99.90
52285;DHT22;38238;53.304;6.606;2022-12-18T03:59:19;-5.10;99.90
52285;DHT22;38238;53.304;6.606;2022-12-18T04:01:48;-5.10;99.90
52285;DHT22;38238;53.304;6.606;2022-12-18T04:04:15;-4.70;99.90
52285;DHT22;38238;53.304;6.606;2022-12-18T04:06:42;-5.20;99.90
52285;DHT22;38238;53.304;6.606;2022-12-18T04:09:09;-5.20;99.90
52285;DHT22;38238;53.304;6.606;2022-12-18T04:11:35;-5.10;99.90
52285;DHT22;38238;53.304;6.606;2022-12-18T04:14:00;-5.10;99.90
52285;DHT22;38238;53.304;6.606;2022-12-18T04:16:27;-5.20;99.90
52285;DHT22;38238;53.304;6.606;2022-12-18T04:18:53;-5.20;99.90
52285;DHT22;38238;53.304;6.606;2022-12-18T04:21:19;-5.30;99.90
52285;DHT22;38238;53.304;6.606;2022-12-18T04:23:45;-5.20;99.90
52285;DHT22;38238;53.304;6.606;2022-12-18T04:26:11;-5.20;99.90
52285;DHT22;38238;53.304;6.606;2022-12-18T04:28:37;-5.30;99.90
52285;DHT22;38238;53.304;6.606;2022-12-18T04:31:02;-5.20;99.90
52285;DHT22;38238;53.304;6.606;2022-12-18T04:33:28;-4.40;99.90
52285;DHT22;38238;53.304;6.606;2022-12-18T04:35:54;-5.30;99.90
52285;DHT22;38238;53.304;6.606;2022-12-18T04:38:20;-5.30;99.90
52285;DHT22;38238;53.304;6.606;2022-12-18T04:40:45;-5.30;99.90
52285;DHT22;38238;53.304;6.606;2022-12-18T04:43:11;-5.40;99.90
52285;DHT22;38238;53.304;6.606;2022-12-18T04:45:37;-5.60;99.90
52285;DHT22;38238;53.304;6.606;2022-12-18T04:48:04;-5.40;99.90
52285;DHT22;38238;53.304;6.606;2022-12-18T04:50:30;-5.40;99.90
52285;DHT22;38238;53.304;6.606;2022-12-18T04:52:56;-5.40;99.90
52285;DHT22;38238;53.304;6.606;2022-12-18T04:55:22;-5.20;99.90
52285;DHT22;38238;53.304;6.606;2022-12-18T04:57:47;-5.40;99.90
52285;DHT22;38238;53.304;6.606;2022-12-18T05:00:14;-5.40;99.90
52285;DHT22;38238;53.304;6.606;2022-12-18T05:02:40;-5.40;99.90
52285;DHT22;38238;53.304;6.606;2022-12-18T05:05:06;-5.40;99.90
52285;DHT22;38238;53.304;6.606;2022-12-18T05:07:31;-5.40;99.90
52285;DHT22;38238;53.304;6.606;2022-12-18T05:09:57;-5.40;99.90
52285;DHT22;38238;53.304;6.606;2022-12-18T05:12:23;-5.40;99.90
52285;DHT22;38238;53.304;6.606;2022-12-18T05:14:48;-5.50;99.90
52285;DHT22;38238;53.304;6.606;2022-12-18T05:17:14;-5.60;99.90
52285;DHT22;38238;53.304;6.606;2022-12-18T05:19:40;-5.40;99.90
52285;DHT22;38238;53.304;6.606;2022-12-18T05:22:05;-5.50;99.90
52285;DHT22;38238;53.304;6.606;2022-12-18T05:24:31;-5.50;99.90
52285;DHT22;38238;53.304;6.606;2022-12-18T05:26:57;-5.60;99.90
52285;DHT22;38238;53.304;6.606;2022-12-18T05:29:23;-5.50;99.90
52285;DHT22;38238;53.304;6.606;2022-12-18T05:31:48;-5.50;99.90
52285;DHT22;38238;53.304;6.606;2022-12-18T05:34:15;-5.50;99.90
52285;DHT22;38238;53.304;6.606;2022-12-18T05:36:42;-4.70;99.90
52285;DHT22;38238;53.304;6.606;2022-12-18T05:39:07;-5.60;99.90
52285;DHT22;38238;53.304;6.606;2022-12-18T05:41:33;-5.60;99.90
52285;DHT22;38238;53.304;6.606;2022-12-18T05:43:59;-5.50;99.90
52285;DHT22;38238;53.304;6.606;2022-12-18T05:46:25;-5.50;99.90
52285;DHT22;38238;53.304;6.606;2022-12-18T05:48:51;-5.60;99.90
52285;DHT22;38238;53.304;6.606;2022-12-18T05:51:19;-5.50;99.90
52285;DHT22;38238;53.304;6.606;2022-12-18T05:53:45;-5.70;99.90
52285;DHT22;38238;53.304;6.606;2022-12-18T05:56:16;-5.70;99.90
52285;DHT22;38238;53.304;6.606;2022-12-18T05:58:43;-6.20;99.90
52285;DHT22;38238;53.304;6.606;2022-12-18T06:03:36;-5.60;99.90
52285;DHT22;38238;53.304;6.606;2022-12-18T06:06:02;-5.60;99.90
52285;DHT22;38238;53.304;6.606;2022-12-18T06:08:28;-5.60;99.90
52285;DHT22;38238;53.304;6.606;2022-12-18T06:10:54;-5.60;99.90
52285;DHT22;38238;53.304;6.606;2022-12-18T06:13:19;-5.50;99.90
52285;DHT22;38238;53.304;6.606;2022-12-18T06:15:45;-5.60;99.90
52285;DHT22;38238;53.304;6.606;2022-12-18T06:18:11;-5.70;99.90
52285;DHT22;38238;53.304;6.606;2022-12-18T06:20:37;-5.80;99.90
52285;DHT22;38238;53.304;6.606;2022-12-18T06:23:05;-5.70;99.90
52285;DHT22;38238;53.304;6.606;2022-12-18T06:25:31;-5.80;99.90
52285;DHT22;38238;53.304;6.606;2022-12-18T06:27:57;-5.80;99.90
52285;DHT22;38238;53.304;6.606;2022-12-18T06:30:23;-5.80;99.90
52285;DHT22;38238;53.304;6.606;2022-12-18T06:32:49;-5.70;99.90
52285;DHT22;38238;53.304;6.606;2022-12-18T06:35:15;-5.80;99.90
52285;DHT22;38238;53.304;6.606;2022-12-18T06:37:41;-5.80;99.90
52285;DHT22;38238;53.304;6.606;2022-12-18T06:40:07;-5.80;99.90
52285;DHT22;38238;53.304;6.606;2022-12-18T06:42:33;-5.90;99.90
52285;DHT22;38238;53.304;6.606;2022-12-18T06:44:59;-4.50;99.90
52285;DHT22;38238;53.304;6.606;2022-12-18T06:47:25;-5.80;99.90
52285;DHT22;38238;53.304;6.606;2022-12-18T06:49:50;-5.90;99.90
52285;DHT22;38238;53.304;6.606;2022-12-18T06:52:16;-5.90;99.90
52285;DHT22;38238;53.304;6.606;2022-12-18T06:54:42;-5.80;99.90
52285;DHT22;38238;53.304;6.606;2022-12-18T06:57:07;-5.90;99.90
52285;DHT22;38238;53.304;6.606;2022-12-18T06:59:33;-6.10;99.90
52285;DHT22;38238;53.304;6.606;2022-12-18T07:01:59;-6.00;99.90
52285;DHT22;38238;53.304;6.606;2022-12-18T07:04:31;-6.00;99.90
52285;DHT22;38238;53.304;6.606;2022-12-18T07:06:56;-5.90;99.90
52285;DHT22;38238;53.304;6.606;2022-12-18T07:09:23;-6.40;99.90
52285;DHT22;38238;53.304;6.606;2022-12-18T07:11:48;-6.00;99.90
52285;DHT22;38238;53.304;6.606;2022-12-18T07:14:14;-5.90;99.90
52285;DHT22;38238;53.304;6.606;2022-12-18T07:16:40;-5.90;99.90
52285;DHT22;38238;53.304;6.606;2022-12-18T07:19:06;-6.00;99.90
52285;DHT22;38238;53.304;6.606;2022-12-18T07:21:31;-4.50;99.90
52285;DHT22;38238;53.304;6.606;2022-12-18T07:23:57;-6.10;99.90
52285;DHT22;38238;53.304;6.606;2022-12-18T07:26:23;-6.00;99.90
52285;DHT22;38238;53.304;6.606;2022-12-18T07:28:49;-6.00;99.90
52285;DHT22;38238;53.304;6.606;2022-12-18T07:31:18;-6.20;99.90
52285;DHT22;38238;53.304;6.606;2022-12-18T07:33:45;-5.90;99.90
52285;DHT22;38238;53.304;6.606;2022-12-18T07:36:11;-5.90;99.90
52285;DHT22;38238;53.304;6.606;2022-12-18T07:38:37;-5.80;99.90
52285;DHT22;38238;53.304;6.606;2022-12-18T07:41:08;-5.80;99.90
52285;DHT22;38238;53.304;6.606;2022-12-18T07:43:34;-6.80;99.90
52285;DHT22;38238;53.304;6.606;2022-12-18T07:46:00;-5.80;99.90
52285;DHT22;38238;53.304;6.606;2022-12-18T07:48:27;-5.70;99.90
52285;DHT22;38238;53.304;6.606;2022-12-18T07:50:53;-5.80;99.90
52285;DHT22;38238;53.304;6.606;2022-12-18T07:53:19;-5.70;99.90
52285;DHT22;38238;53.304;6.606;2022-12-18T07:55:44;-5.70;99.90
52285;DHT22;38238;53.304;6.606;2022-12-18T07:58:10;-5.70;99.90
52285;DHT22;38238;53.304;6.606;2022-12-18T08:00:36;-4.30;99.90
52285;DHT22;38238;53.304;6.606;2022-12-18T08:03:02;-5.70;99.90
52285;DHT22;38238;53.304;6.606;2022-12-18T08:05:28;-6.90;99.90
52285;DHT22;38238;53.304;6.606;2022-12-18T08:07:53;-5.80;99.90
52285;DHT22;38238;53.304;6.606;2022-12-18T08:10:19;-5.80;99.90
52285;DHT22;38238;53.304;6.606;2022-12-18T08:12:48;-5.80;99.90
52285;DHT22;38238;53.304;6.606;2022-12-18T08:17:40;-5.20;99.90
52285;DHT22;38238;53.304;6.606;2022-12-18T08:20:06;-5.80;99.90
52285;DHT22;38238;53.304;6.606;2022-12-18T08:22:34;-7.40;99.90
52285;DHT22;38238;53.304;6.606;2022-12-18T08:25:03;-5.90;99.90
52285;DHT22;38238;53.304;6.606;2022-12-18T08:27:29;-5.60;99.90
52285;DHT22;38238;53.304;6.606;2022-12-18T08:29:55;-5.70;99.90
52285;DHT22;38238;53.304;6.606;2022-12-18T08:32:21;-6.60;99.90
52285;DHT22;38238;53.304;6.606;2022-12-18T08:34:46;-4.70;99.90
52285;DHT22;38238;53.304;6.606;2022-12-18T08:37:12;-5.60;99.90
52285;DHT22;38238;53.304;6.606;2022-12-18T08:39:38;-5.60;99.90
52285;DHT22;38238;53.304;6.606;2022-12-18T08:42:03;-5.60;99.90
52285;DHT22;38238;53.304;6.606;2022-12-18T08:44:47;-5.40;99.90
52285;DHT22;38238;53.304;6.606;2022-12-18T08:47:13;-5.40;99.90
52285;DHT22;38238;53.304;6.606;2022-12-18T08:49:39;-5.40;99.90
52285;DHT22;38238;53.304;6.606;2022-12-18T08:52:04;-5.40;99.90
52285;DHT22;38238;53.304;6.606;2022-12-18T08:54:30;-6.10;99.90
52285;DHT22;38238;53.304;6.606;2022-12-18T08:56:56;-4.40;99.90
52285;DHT22;38238;53.304;6.606;2022-12-18T08:59:22;-5.30;99.90
52285;DHT22;38238;53.304;6.606;2022-12-18T09:01:49;-5.20;99.90
52285;DHT22;38238;53.304;6.606;2022-12-18T09:04:15;-5.20;99.90
52285;DHT22;38238;53.304;6.606;2022-12-18T09:06:41;-5.30;99.90
52285;DHT22;38238;53.304;6.606;2022-12-18T09:09:07;-5.20;99.90
52285;DHT22;38238;53.304;6.606;2022-12-18T09:11:33;-5.10;99.90
52285;DHT22;38238;53.304;6.606;2022-12-18T09:14:00;-5.10;99.90
52285;DHT22;38238;53.304;6.606;2022-12-18T09:16:27;-4.50;99.90
52285;DHT22;38238;53.304;6.606;2022-12-18T09:18:57;-3.20;99.90
52285;DHT22;38238;53.304;6.606;2022-12-18T09:21:37;-3.20;99.90
52285;DHT22;38238;53.304;6.606;2022-12-18T09:24:04;-4.90;99.90
52285;DHT22;38238;53.304;6.606;2022-12-18T09:26:30;-5.30;99.90
52285;DHT22;38238;53.304;6.606;2022-12-18T09:28:56;-4.60;99.90
52285;DHT22;38238;53.304;6.606;2022-12-18T09:31:23;-4.70;99.90
52285;DHT22;38238;53.304;6.606;2022-12-18T09:33:49;-2.90;99.90
52285;DHT22;38238;53.304;6.606;2022-12-18T09:36:16;-4.50;99.90
52285;DHT22;38238;53.304;6.606;2022-12-18T09:38:43;-4.10;99.90
52285;DHT22;38238;53.304;6.606;2022-12-18T09:44:00;-4.30;99.90
52285;DHT22;38238;53.304;6.606;2022-12-18T09:46:30;-4.20;99.90
52285;DHT22;38238;53.304;6.606;2022-12-18T09:49:01;-4.20;99.90
52285;DHT22;38238;53.304;6.606;2022-12-18T09:51:53;-4.10;99.90
52285;DHT22;38238;53.304;6.606;2022-12-18T09:54:24;-4.20;99.90
52285;DHT22;38238;53.304;6.606;2022-12-18T09:56:51;-4.10;99.90
52285;DHT22;38238;53.304;6.606;2022-12-18T09:59:24;-4.00;99.90
52285;DHT22;38238;53.304;6.606;2022-12-18T10:01:50;-4.10;99.90
52285;DHT22;38238;53.304;6.606;2022-12-18T10:04:16;-4.00;99.90
52285;DHT22;38238;53.304;6.606;2022-12-18T10:06:55;-3.90;99.90
52285;DHT22;38238;53.304;6.606;2022-12-18T10:11:59;-3.00;99.90
52285;DHT22;38238;53.304;6.606;2022-12-18T10:14:57;-3.80;99.90
52285;DHT22;38238;53.304;6.606;2022-12-18T10:17:46;-3.70;99.90
52285;DHT22;38238;53.304;6.606;2022-12-18T10:25:46;-3.30;99.90
52285;DHT22;38238;53.304;6.606;2022-12-18T10:28:14;-3.20;99.90
52285;DHT22;38238;53.304;6.606;2022-12-18T10:30:41;-3.10;99.90
52285;DHT22;38238;53.304;6.606;2022-12-18T10:33:16;-2.90;99.90
52285;DHT22;38238;53.304;6.606;2022-12-18T10:35:43;-2.80;99.90
52285;DHT22;38238;53.304;6.606;2022-12-18T10:40:50;-2.60;99.90
52285;DHT22;38238;53.304;6.606;2022-12-18T10:43:24;-2.40;99.90
52285;DHT22;38238;53.304;6.606;2022-12-18T10:51:06;-2.20;99.90
52285;DHT22;38238;53.304;6.606;2022-12-18T10:53:35;-2.10;99.90
52285;DHT22;38238;53.304;6.606;2022-12-18T10:56:04;-1.30;99.90
52285;DHT22;38238;53.304;6.606;2022-12-18T10:58:32;-2.00;99.90
52285;DHT22;38238;53.304;6.606;2022-12-18T11:01:18;-1.10;99.90
52285;DHT22;38238;53.304;6.606;2022-12-18T11:06:20;-2.10;99.90
52285;DHT22;38238;53.304;6.606;2022-12-18T11:11:25;-2.10;99.90
52285;DHT22;38238;53.304;6.606;2022-12-18T11:14:05;-2.10;99.90
52285;DHT22;38238;53.304;6.606;2022-12-18T11:16:45;-2.30;99.90
52285;DHT22;38238;53.304;6.606;2022-12-18T11:19:36;-2.40;99.90
52285;DHT22;38238;53.304;6.606;2022-12-18T11:22:17;-2.30;99.90
52285;DHT22;38238;53.304;6.606;2022-12-18T11:25:02;-2.40;99.90
52285;DHT22;38238;53.304;6.606;2022-12-18T11:27:29;-2.40;99.90
52285;DHT22;38238;53.304;6.606;2022-12-18T11:30:22;-2.40;99.90
52285;DHT22;38238;53.304;6.606;2022-12-18T11:35:47;-2.40;99.90
52285;DHT22;38238;53.304;6.606;2022-12-18T11:38:24;-2.30;99.90
52285;DHT22;38238;53.304;6.606;2022-12-18T11:44:22;-2.40;99.90
52285;DHT22;38238;53.304;6.606;2022-12-18T11:46:55;-2.30;99.90
52285;DHT22;38238;53.304;6.606;2022-12-18T11:49:32;-2.30;99.90
52285;DHT22;38238;53.304;6.606;2022-12-18T11:54:25;-2.30;99.90
52285;DHT22;38238;53.304;6.606;2022-12-18T11:56:56;-2.30;99.90
52285;DHT22;38238;53.304;6.606;2022-12-18T12:01:57;-2.30;99.90
52285;DHT22;38238;53.304;6.606;2022-12-18T12:04:42;-2.30;99.90
52285;DHT22;38238;53.304;6.606;2022-12-18T12:12:45;-2.20;99.90
52285;DHT22;38238;53.304;6.606;2022-12-18T12:15:34;-2.20;99.90
52285;DHT22;38238;53.304;6.606;2022-12-18T12:26:33;-2.20;99.90
52285;DHT22;38238;53.304;6.606;2022-12-18T12:39:44;-2.00;99.90
52285;DHT22;38238;53.304;6.606;2022-12-18T12:42:34;-2.00;99.90
52285;DHT22;38238;53.304;6.606;2022-12-18T12:45:28;-0.90;99.90
52285;DHT22;38238;53.304;6.606;2022-12-18T12:47:57;-2.00;99.90
52285;DHT22;38238;53.304;6.606;2022-12-18T12:50:25;-1.90;99.90
52285;DHT22;38238;53.304;6.606;2022-12-18T12:52:55;-0.20;99.90
52285;DHT22;38238;53.304;6.606;2022-12-18T12:55:24;-1.90;99.90
52285;DHT22;38238;53.304;6.606;2022-12-18T12:58:02;-1.50;99.90
52285;DHT22;38238;53.304;6.606;2022-12-18T13:00:59;-1.90;99.90
52285;DHT22;38238;53.304;6.606;2022-12-18T13:09:11;-1.80;99.90
52285;DHT22;38238;53.304;6.606;2022-12-18T13:11:43;-1.80;99.90
52285;DHT22;38238;53.304;6.606;2022-12-18T13:14:46;-1.80;99.90
52285;DHT22;38238;53.304;6.606;2022-12-18T13:17:27;-1.70;99.90
52285;DHT22;38238;53.304;6.606;2022-12-18T13:20:10;-1.70;99.90
52285;DHT22;38238;53.304;6.606;2022-12-18T13:22:38;-1.60;99.90
52285;DHT22;38238;53.304;6.606;2022-12-18T13:40:59;-1.50;99.90
52285;DHT22;38238;53.304;6.606;2022-12-18T13:43:42;-0.60;99.90
52285;DHT22;38238;53.304;6.606;2022-12-18T13:46:26;-1.50;99.90
52285;DHT22;38238;53.304;6.606;2022-12-18T13:48:56;-1.50;99.90
52285;DHT22;38238;53.304;6.606;2022-12-18T13:51:23;-0.80;99.90
52285;DHT22;38238;53.304;6.606;2022-12-18T13:53:59;-1.60;99.90
52285;DHT22;38238;53.304;6.606;2022-12-18T13:56:32;-1.50;99.90
52285;DHT22;38238;53.304;6.606;2022-12-18T13:59:19;-0.20;99.90
52285;DHT22;38238;53.304;6.606;2022-12-18T14:01:59;-1.00;99.90
52285;DHT22;38238;53.304;6.606;2022-12-18T14:04:33;-1.50;99.90
52285;DHT22;38238;53.304;6.606;2022-12-18T14:07:24;-1.50;99.90
52285;DHT22;38238;53.304;6.606;2022-12-18T14:09:58;-1.50;99.90
52285;DHT22;38238;53.304;6.606;2022-12-18T14:12:28;-1.50;99.90
52285;DHT22;38238;53.304;6.606;2022-12-18T14:18:13;-1.60;99.90
52285;DHT22;38238;53.304;6.606;2022-12-18T14:20:43;-1.60;99.90
52285;DHT22;38238;53.304;6.606;2022-12-18T14:23:36;-1.60;99.90
52285;DHT22;38238;53.304;6.606;2022-12-18T14:26:25;-1.60;99.90
52285;DHT22;38238;53.304;6.606;2022-12-18T14:28:50;-1.60;99.90
52285;DHT22;38238;53.304;6.606;2022-12-18T14:31:22;-1.60;99.90
52285;DHT22;38238;53.304;6.606;2022-12-18T14:33:48;-1.70;99.90
52285;DHT22;38238;53.304;6.606;2022-12-18T14:36:37;-1.10;99.90
52285;DHT22;38238;53.304;6.606;2022-12-18T14:39:05;-0.80;99.90
52285;DHT22;38238;53.304;6.606;2022-12-18T14:41:30;-1.70;99.90
52285;DHT22;38238;53.304;6.606;2022-12-18T14:44:05;-1.70;99.90
52285;DHT22;38238;53.304;6.606;2022-12-18T14:46:34;-1.70;99.90
52285;DHT22;38238;53.304;6.606;2022-12-18T14:49:03;-1.80;99.90
52285;DHT22;38238;53.304;6.606;2022-12-18T14:51:31;-1.90;99.90
52285;DHT22;38238;53.304;6.606;2022-12-18T14:53:59;0.00;99.90
52285;DHT22;38238;53.304;6.606;2022-12-18T14:56:34;-1.90;99.90
52285;DHT22;38238;53.304;6.606;2022-12-18T14:59:06;-1.80;99.90
52285;DHT22;38238;53.304;6.606;2022-12-18T15:01:44;-1.80;99.90
52285;DHT22;38238;53.304;6.606;2022-12-18T15:04:32;-1.90;99.90
52285;DHT22;38238;53.304;6.606;2022-12-18T15:09:35;-1.90;99.90
52285;DHT22;38238;53.304;6.606;2022-12-18T15:12:01;-1.90;99.90
52285;DHT22;38238;53.304;6.606;2022-12-18T15:14:34;-1.90;99.90
52285;DHT22;38238;53.304;6.606;2022-12-18T15:17:02;-2.00;99.90
52285;DHT22;38238;53.304;6.606;2022-12-18T15:19:38;-1.80;99.90
52285;DHT22;38238;53.304;6.606;2022-12-18T15:22:25;-2.00;99.90
52285;DHT22;38238;53.304;6.606;2022-12-18T15:24:51;-2.00;99.90
52285;DHT22;38238;53.304;6.606;2022-12-18T15:30:17;-2.10;99.90
52285;DHT22;38238;53.304;6.606;2022-12-18T15:32:43;-2.10;99.90
52285;DHT22;38238;53.304;6.606;2022-12-18T15:37:42;-2.10;99.90
52285;DHT22;38238;53.304;6.606;2022-12-18T15:40:15;-2.20;99.90
52285;DHT22;38238;53.304;6.606;2022-12-18T15:42:42;-2.10;99.90
52285;DHT22;38238;53.304;6.606;2022-12-18T15:45:26;-2.20;99.90
52285;DHT22;38238;53.304;6.606;2022-12-18T15:47:52;-2.30;99.90
52285;DHT22;38238;53.304;6.606;2022-12-18T15:50:18;-2.30;99.90
52285;DHT22;38238;53.304;6.606;2022-12-18T15:52:49;-2.20;99.90
52285;DHT22;38238;53.304;6.606;2022-12-18T15:55:20;-2.30;99.90
52285;DHT22;38238;53.304;6.606;2022-12-18T15:58:05;-2.30;99.90
52285;DHT22;38238;53.304;6.606;2022-12-18T16:00:32;-2.40;99.90
52285;DHT22;38238;53.304;6.606;2022-12-18T16:02:59;-2.30;99.90
52285;DHT22;38238;53.304;6.606;2022-12-18T16:05:26;-2.20;99.90
52285;DHT22;38238;53.304;6.606;2022-12-18T16:07:52;-2.30;99.90
52285;DHT22;38238;53.304;6.606;2022-12-18T16:10:19;-2.30;99.90
52285;DHT22;38238;53.304;6.606;2022-12-18T16:12:45;-1.50;99.90
52285;DHT22;38238;53.304;6.606;2022-12-18T16:15:14;-2.10;99.90
52285;DHT22;38238;53.304;6.606;2022-12-18T16:17:44;-2.30;99.90
52285;DHT22;38238;53.304;6.606;2022-12-18T16:20:15;-2.30;99.90
52285;DHT22;38238;53.304;6.606;2022-12-18T16:22:43;-2.30;99.90
52285;DHT22;38238;53.304;6.606;2022-12-18T16:25:27;-2.30;99.90
52285;DHT22;38238;53.304;6.606;2022-12-18T16:27:54;-2.30;99.90
52285;DHT22;38238;53.304;6.606;2022-12-18T16:30:30;-2.30;99.90
52285;DHT22;38238;53.304;6.606;2022-12-18T16:32:57;-2.30;99.90
52285;DHT22;38238;53.304;6.606;2022-12-18T16:35:24;-0.90;99.90
52285;DHT22;38238;53.304;6.606;2022-12-18T16:37:50;-2.30;99.90
52285;DHT22;38238;53.304;6.606;2022-12-18T16:40:16;-2.20;99.90
52285;DHT22;38238;53.304;6.606;2022-12-18T16:42:44;-2.20;99.90
52285;DHT22;38238;53.304;6.606;2022-12-18T16:45:13;-2.30;99.90
52285;DHT22;38238;53.304;6.606;2022-12-18T16:47:39;-2.30;99.90
52285;DHT22;38238;53.304;6.606;2022-12-18T16:50:05;-2.20;99.90
52285;DHT22;38238;53.304;6.606;2022-12-18T16:52:31;-2.30;99.90
52285;DHT22;38238;53.304;6.606;2022-12-18T16:54:57;-2.30;99.90
52285;DHT22;38238;53.304;6.606;2022-12-18T16:57:23;-2.10;99.90
52285;DHT22;38238;53.304;6.606;2022-12-18T16:59:48;-1.40;99.90
52285;DHT22;38238;53.304;6.606;2022-12-18T17:02:15;-2.20;99.90
52285;DHT22;38238;53.304;6.606;2022-12-18T17:04:42;-2.20;99.90
52285;DHT22;38238;53.304;6.606;2022-12-18T17:07:08;-2.10;99.90
52285;DHT22;38238;53.304;6.606;2022-12-18T17:09:34;-2.10;99.90
52285;DHT22;38238;53.304;6.606;2022-12-18T17:12:00;-2.10;99.90
52285;DHT22;38238;53.304;6.606;2022-12-18T17:14:26;-0.10;99.90
52285;DHT22;38238;53.304;6.606;2022-12-18T17:16:55;-2.00;99.90
52285;DHT22;38238;53.304;6.606;2022-12-18T17:19:24;-2.00;99.90
52285;DHT22;38238;53.304;6.606;2022-12-18T17:21:50;-1.90;99.90
52285;DHT22;38238;53.304;6.606;2022-12-18T17:24:18;-1.90;99.90
52285;DHT22;38238;53.304;6.606;2022-12-18T17:26:44;-1.90;99.90
52285;DHT22;38238;53.304;6.606;2022-12-18T17:29:13;-1.90;99.90
52285;DHT22;38238;53.304;6.606;2022-12-18T17:31:39;-1.90;99.90
52285;DHT22;38238;53.304;6.606;2022-12-18T17:34:05;-1.90;99.90
52285;DHT22;38238;53.304;6.606;2022-12-18T17:36:31;-1.90;99.90
52285;DHT22;38238;53.304;6.606;2022-12-18T17:38:59;-1.90;99.90
52285;DHT22;38238;53.304;6.606;2022-12-18T17:41:26;-1.80;99.90